Altus Air Force Base
KLTS : rendu visible

Aérodrome :











RETROUVEZ-NOUS SUR...

 
LOGIN :

S'inscrire | Disclaimer

   EN    FR    IT 

 









Légende :    VFR   VFR Marginal   IFR   IFR Intensif   IFR Très Intensif
Visi : 
Plafond : 
>= 8 km
>= 3000ft
5 à 8 km
1000 à 3000 ft
1500m à 5 km
500 à 1000 ft
800 à 1500m
200 à 500 ft
< 800m
< 200 ft
Symboles :   Orages  Brouillard  Fortes neiges  Fortes précipitations  Vent > 20 kt






- Altitude de l'aérodrome : 1382 ft


KLTS - Altus Air Force Base

DERNIER METAR :
  • 241711Z 15016KT 10SM SCT010 BKN018 BKN025 17/14 A2975 RMK AO2A CIG 015 RWY17R SLP069 $

METARs EXPIRÉS :
  • 241656Z 15014G20KT 10SM BKN008 BKN027 16/14 A2976 RMK AO2A BKN008 V OVC CIG 007 RWY17L CIG 007 RWY17R SLP073 $
  • 241556Z 16013G19KT 7SM OVC006 15/15 A2980 RMK AO2A SLP087 $
  • 241525Z 15013KT 6SM BR OVC006 15/13 A2980 RMK AO2A TWR VIS 4 1/4SM SLP087 $
  • 241456Z 14013KT 6SM BR OVC006 14/13 A2980 RMK AO2A RAE1356DZB1356E1357RAB1357E07DZB07E08RAB08E09 SLP088 P0001 60002 58010 $

TAF TAF KLTS
Valide du 24 à 17h jusqu'au 25 à 23h UTC


241715Z 2417/2523 17015G20KT 9999 FEW015 BKN025 510023 QNH2970INS
BECMG 2417/2418 17015G20KT 9999 SCT040 510023 QNH2970INS
BECMG 2421/2422 20020G30KT 9999 SKC 520002 QNH2960INS
TEMPO 2423/2501 8000 -TSRA BKN015CB
BECMG 2503/2504 31015KT 9999 FEW025 SCT100 520034 QNH2987INS
BECMG 2520/2521 VRB06KT 9999 SKC QNH3003INS TX23/2422Z TN04/2511Z
FIR KZFW / Amérique du Nord



MET'MAP, la Météo Aéronautique d'un coup d'oeil ! - Copyright ORBIFLY Décembre 2007 - Disclaimer

ORBIFLY MET'MAP TEAM :

Programmation & Développement : Alexandra Zaïnal
Sur une idée originale de : Baudouin d'Aumeries
Assistance à la programmation : Marc-Olivier Méhu
Soutien technique & logistique : Manuel Goepfert

Contact : metmap@orbifly.com




SOURCES & CREDITS :

   NOAA       Earth
Advisory